Time;durP1;ratioP1;P1;durP2;ratioP2;P2;SDS_P1;SDS_P2;PMS_P1;PMS_P2;Temp;Humidity;BMP_temperature;BMP_pressure;BME280_temperature;BME280_humidity;BME280_pressure;Samples;Min_cycle;Max_cycle;Signal;HPM_P1;HPM_P2
2021/03/23 00:00:46;;;;;;;41.33;20.50;;;;;;;1.80;58.15;100150.28;115544;1199;103178;-80
2021/03/23 00:03:47;;;;;;;42.13;21.00;;;;;;;1.78;58.76;100146.81;115613;1199;103040;-79
2021/03/23 00:06:24;;;;;;;40.77;20.63;;;;;;;1.79;58.47;100148.53;115366;1200;103113;-79
2021/03/23 00:08:54;;;;;;;42.73;20.20;;;;;;;1.79;58.58;100140.81;115343;1199;102993;-78
2021/03/23 00:11:26;;;;;;;39.65;20.45;;;;;;;1.83;58.71;100143.42;115372;1199;103095;-78
2021/03/23 00:13:56;;;;;;;41.80;19.63;;;;;;;1.84;58.30;100142.56;115375;1200;103424;-79
2021/03/23 00:16:26;;;;;;;40.80;21.00;;;;;;;1.83;58.58;100140.84;115438;1200;103028;-78
2021/03/23 00:18:54;;;;;;;41.57;19.83;;;;;;;1.84;58.58;100139.99;115310;1198;103076;-79
2021/03/23 00:21:23;;;;;;;37.70;19.27;;;;;;;1.84;58.59;100129.70;115359;1198;102998;-78
2021/03/23 00:23:51;;;;;;;39.30;19.10;;;;;;;1.84;58.32;100127.99;115419;1199;103105;-79
2021/03/23 00:26:19;;;;;;;38.17;19.30;;;;;;;1.87;58.38;100132.27;115575;1197;103108;-79
2021/03/23 00:28:49;;;;;;;37.47;18.70;;;;;;;1.88;58.45;100133.98;115427;1199;103080;-79
2021/03/23 00:31:17;;;;;;;34.23;17.90;;;;;;;1.89;58.69;100130.56;115600;1199;102980;-78
2021/03/23 00:33:57;;;;;;;39.17;18.33;;;;;;;1.92;58.17;100130.56;115398;1197;103044;-78
2021/03/23 00:36:29;;;;;;;35.00;18.23;;;;;;;1.92;58.42;100122.84;115330;1197;103055;-78
2021/03/23 00:38:57;;;;;;;34.00;17.10;;;;;;;1.92;58.51;100123.70;115512;1199;103219;-78
2021/03/23 00:41:24;;;;;;;33.53;16.77;;;;;;;1.96;58.28;100127.13;115333;1199;103072;-78
2021/03/23 00:43:52;;;;;;;33.20;17.60;;;;;;;1.97;58.51;100123.70;115641;1199;103098;-78
2021/03/23 00:46:20;;;;;;;37.00;17.23;;;;;;;1.96;58.23;100125.41;115311;1199;103444;-78
2021/03/23 00:48:47;;;;;;;32.93;16.47;;;;;;;1.96;58.29;100125.41;115348;1200;103159;-78
2021/03/23 00:51:14;;;;;;;31.70;16.40;;;;;;;1.97;57.97;100119.41;115455;1200;103692;-77
2021/03/23 00:53:42;;;;;;;33.93;17.17;;;;;;;1.98;58.15;100123.73;115347;1199;103101;-78
2021/03/23 00:56:09;;;;;;;31.37;16.87;;;;;;;1.98;57.86;100126.30;115598;1199;103072;-78
2021/03/23 00:58:36;;;;;;;32.23;15.47;;;;;;;1.96;57.74;100117.69;115590;1198;103031;-78
2021/03/23 01:01:03;;;;;;;30.77;15.03;;;;;;;1.94;58.39;100116.84;115337;1199;103051;-78
2021/03/23 01:03:30;;;;;;;30.77;15.73;;;;;;;1.94;58.49;100115.98;115620;1199;103040;-80
2021/03/23 01:05:58;;;;;;;31.10;15.87;;;;;;;1.95;58.64;100125.41;115358;1200;103034;-78
2021/03/23 01:08:26;;;;;;;28.80;15.35;;;;;;;1.93;58.53;100114.27;115593;1198;103096;-79
2021/03/23 01:10:54;;;;;;;32.00;15.77;;;;;;;1.92;58.86;100121.13;115396;1199;103021;-79
2021/03/23 01:13:21;;;;;;;25.93;14.47;;;;;;;1.90;58.81;100121.98;115651;1196;103117;-78
2021/03/23 01:15:48;;;;;;;29.53;14.27;;;;;;;1.87;59.11;100121.98;115348;1199;103101;-79
2021/03/23 01:18:15;;;;;;;27.47;15.37;;;;;;;1.86;58.79;100120.28;115392;1200;103016;-79
2021/03/23 01:20:42;;;;;;;29.67;14.63;;;;;;;1.86;58.97;100117.70;115425;1199;103066;-78
2021/03/23 01:23:10;;;;;;;28.95;14.80;;;;;;;1.86;59.28;100118.56;115359;1199;103008;-78
2021/03/23 01:25:37;;;;;;;29.30;14.93;;;;;;;1.86;59.03;100117.70;115328;1199;103181;-78
2021/03/23 01:28:04;;;;;;;26.63;14.40;;;;;;;1.86;59.11;100115.13;115359;1199;103098;-78
2021/03/23 01:30:31;;;;;;;30.80;14.03;;;;;;;1.87;59.36;100107.41;115549;1198;103085;-79
2021/03/23 01:32:58;;;;;;;29.27;13.80;;;;;;;1.87;59.12;100109.98;115386;1199;103096;-79
2021/03/23 01:35:27;;;;;;;28.63;14.33;;;;;;;1.85;59.31;100105.70;115553;1198;103079;-78
2021/03/23 01:37:55;;;;;;;28.85;13.93;;;;;;;1.85;58.97;100101.42;115406;1199;103171;-77
2021/03/23 01:40:26;;;;;;;28.57;14.87;;;;;;;1.84;59.21;100106.56;115353;1197;103127;-78
2021/03/23 01:42:59;;;;;;;29.73;14.37;;;;;;;1.84;59.36;100106.56;115359;1198;101854;-78
2021/03/23 01:45:31;;;;;;;28.77;14.07;;;;;;;1.83;59.50;100104.84;115361;1199;103030;-79
2021/03/23 01:48:01;;;;;;;28.30;13.37;;;;;;;1.80;59.42;100103.99;115391;1199;103198;-79
2021/03/23 01:50:29;;;;;;;28.70;14.50;;;;;;;1.78;59.58;100103.11;115330;1199;103060;-78
2021/03/23 01:53:12;;;;;;;26.40;13.87;;;;;;;1.77;59.32;100110.82;115654;1198;103050;-78
2021/03/23 01:55:39;;;;;;;28.33;14.40;;;;;;;1.77;59.59;100110.82;115340;1197;103092;-79
2021/03/23 01:58:09;;;;;;;27.43;13.53;;;;;;;1.77;59.66;100106.53;115347;1199;104721;-78
2021/03/23 02:00:36;;;;;;;28.10;13.70;;;;;;;1.76;59.84;100104.82;115388;1200;102007;-79
2021/03/23 02:03:05;;;;;;;27.30;13.47;;;;;;;1.78;59.61;100107.39;115464;1199;105435;-79
2021/03/23 02:05:33;;;;;;;28.20;13.47;;;;;;;1.79;59.64;100104.82;115424;1198;102810;-79
2021/03/23 02:08:04;;;;;;;25.83;13.00;;;;;;;1.80;59.55;100108.28;115394;1200;103136;-78
2021/03/23 02:10:32;;;;;;;25.80;13.53;;;;;;;1.80;59.62;100101.42;115446;1199;103028;-78
2021/03/23 02:13:02;;;;;;;26.23;13.13;;;;;;;1.82;59.56;100109.13;115587;1199;103038;-78
2021/03/23 02:15:30;;;;;;;26.00;12.77;;;;;;;1.81;59.44;100097.14;115573;1198;102992;-78
2021/03/23 02:18:15;;;;;;;23.35;12.30;;;;;;;1.80;58.90;100106.56;115586;1199;103181;-78
2021/03/23 02:21:08;;;;;;;25.03;12.70;;;;;;;1.81;59.15;100110.85;115573;1199;103056;-78
2021/03/23 02:23:39;;;;;;;26.03;13.00;;;;;;;1.80;59.55;100111.70;115354;1199;103111;-78
2021/03/23 02:26:09;;;;;;;25.40;12.70;;;;;;;1.80;59.62;100114.28;115367;1198;103130;-79
2021/03/23 02:28:51;;;;;;;23.13;11.97;;;;;;;1.79;59.45;100120.25;115355;1199;102915;-79
2021/03/23 02:31:21;;;;;;;23.40;11.93;;;;;;;1.78;59.57;100113.39;115549;1199;102812;-78
2021/03/23 02:33:49;;;;;;;22.00;12.40;;;;;;;1.80;59.21;100111.70;115441;1198;103021;-78
2021/03/23 02:36:17;;;;;;;24.90;12.43;;;;;;;1.81;59.40;100112.56;115378;1199;103143;-77
2021/03/23 02:38:44;;;;;;;26.13;11.97;;;;;;;1.80;59.10;100114.28;115320;1198;103028;-77
2021/03/23 02:41:11;;;;;;;24.57;12.13;;;;;;;1.80;59.00;100111.70;115347;1200;103047;-78
2021/03/23 02:43:39;;;;;;;24.58;12.15;;;;;;;1.79;58.98;100117.67;115399;1200;103054;-78
2021/03/23 02:46:06;;;;;;;23.63;12.03;;;;;;;1.80;59.32;100113.42;115412;1199;103015;-79
2021/03/23 02:48:33;;;;;;;26.40;12.80;;;;;;;1.80;59.17;100116.00;115610;1199;103025;-79
2021/03/23 02:51:01;;;;;;;22.65;12.15;;;;;;;1.82;58.97;100114.28;115519;1199;102807;-78
2021/03/23 02:53:28;;;;;;;23.17;12.13;;;;;;;1.82;58.93;100109.13;115344;1198;103108;-78
2021/03/23 02:55:57;;;;;;;23.80;12.67;;;;;;;1.83;59.33;100105.70;115350;1198;103105;-78
2021/03/23 02:58:24;;;;;;;21.90;12.18;;;;;;;1.83;59.18;100104.84;115541;1198;103066;-79
2021/03/23 03:00:51;;;;;;;23.97;12.17;;;;;;;1.84;59.03;100111.70;115562;1199;103034;-78
2021/03/23 03:03:18;;;;;;;21.55;11.40;;;;;;;1.85;59.24;100105.70;115619;1198;103072;-78
2021/03/23 03:05:52;;;;;;;23.87;11.93;;;;;;;1.84;58.81;100101.42;115589;1199;103193;-78
2021/03/23 03:08:21;;;;;;;23.80;11.80;;;;;;;1.83;59.04;100104.84;115348;1199;102976;-78
2021/03/23 03:10:49;;;;;;;22.60;10.80;;;;;;;1.81;58.95;100099.70;115573;1198;103059;-77
2021/03/23 03:13:19;;;;;;;23.30;11.20;;;;;;;1.80;59.00;100106.56;115371;1199;100666;-78
2021/03/23 03:15:47;;;;;;;20.55;10.55;;;;;;;1.80;59.09;100098.84;115289;1199;102087;-77
2021/03/23 03:18:14;;;;;;;21.57;10.67;;;;;;;1.80;58.83;100093.70;115337;1198;103062;-78
2021/03/23 03:20:42;;;;;;;20.87;10.60;;;;;;;1.80;58.78;100091.14;115521;1198;103060;-78
2021/03/23 03:23:10;;;;;;;19.33;9.93;;;;;;;1.79;58.86;100102.25;115345;1199;102961;-78
2021/03/23 03:25:38;;;;;;;21.63;10.57;;;;;;;1.80;58.95;100100.56;115335;1199;102180;-79
2021/03/23 03:28:08;;;;;;;19.60;10.40;;;;;;;1.81;59.24;100103.13;115368;1199;103024;-78
2021/03/23 03:30:38;;;;;;;18.70;9.03;;;;;;;1.83;59.23;100107.42;115334;1200;103040;-76
2021/03/23 03:33:07;;;;;;;17.10;9.73;;;;;;;1.84;58.63;100107.42;115366;1199;103107;-77
2021/03/23 03:35:38;;;;;;;21.37;9.87;;;;;;;1.85;58.69;100113.42;115586;1199;102995;-78
2021/03/23 03:38:06;;;;;;;18.67;9.57;;;;;;;1.86;58.97;100109.98;115567;1199;100587;-78
2021/03/23 03:40:44;;;;;;;20.27;8.53;;;;;;;1.88;58.56;100113.41;115348;1200;103135;-78
2021/03/23 03:43:13;;;;;;;18.67;9.07;;;;;;;1.89;59.07;100120.27;115505;1198;103117;-77
2021/03/23 03:45:40;;;;;;;19.53;9.10;;;;;;;1.89;58.55;100120.27;115350;1199;103043;-77
2021/03/23 03:48:08;;;;;;;16.63;8.80;;;;;;;1.91;58.68;100118.55;115622;1199;103027;-77
2021/03/23 03:50:35;;;;;;;14.45;8.50;;;;;;;1.88;58.62;100119.42;115365;1198;103021;-78
2021/03/23 03:53:04;;;;;;;18.60;8.50;;;;;;;1.87;58.89;100122.84;115557;1200;102118;-78
2021/03/23 03:55:34;;;;;;;17.67;8.03;;;;;;;1.87;58.70;100112.56;115278;1197;103145;-78
2021/03/23 03:58:01;;;;;;;14.93;7.90;;;;;;;1.90;58.55;100116.84;115582;1199;102915;-78
2021/03/23 04:00:31;;;;;;;19.90;8.25;;;;;;;1.90;58.71;100121.98;115595;1197;103860;-78
2021/03/23 04:02:59;;;;;;;15.73;8.20;;;;;;;1.90;58.79;100122.84;115585;1199;103469;-78
2021/03/23 04:05:30;;;;;;;17.47;8.67;;;;;;;1.94;58.50;100118.55;115610;1199;103005;-77
2021/03/23 04:07:57;;;;;;;18.00;8.73;;;;;;;1.96;58.84;100117.69;115354;1198;103133;-77
2021/03/23 04:10:25;;;;;;;18.40;8.50;;;;;;;1.99;58.74;100122.02;115288;1199;103212;-78
2021/03/23 04:12:52;;;;;;;18.17;8.23;;;;;;;1.98;58.80;100118.58;115490;1200;103459;-78
2021/03/23 04:15:23;;;;;;;14.70;7.83;;;;;;;1.98;58.29;100113.44;115597;1199;103066;-78
2021/03/23 04:17:50;;;;;;;19.23;8.80;;;;;;;1.97;58.32;100119.41;115566;1199;103011;-77
2021/03/23 04:20:19;;;;;;;17.13;7.77;;;;;;;1.99;58.50;100124.58;115257;1199;103159;-76
2021/03/23 04:22:47;;;;;;;14.50;7.40;;;;;;;1.97;58.31;100128.84;115341;1199;102819;-77
2021/03/23 04:25:18;;;;;;;13.83;7.20;;;;;;;1.96;58.58;100124.55;115356;1199;103108;-79
2021/03/23 04:27:46;;;;;;;19.70;8.73;;;;;;;1.94;58.74;100128.84;115605;1199;103088;-78
2021/03/23 04:30:14;;;;;;;19.13;7.93;;;;;;;1.94;58.47;100124.55;115630;1199;103009;-80
2021/03/23 04:32:42;;;;;;;15.77;8.30;;;;;;;1.95;58.40;100130.55;115379;1198;103155;-79
2021/03/23 04:35:21;;;;;;;19.60;8.60;;;;;;;1.97;58.96;100118.55;115464;1199;103143;-79
2021/03/23 04:37:48;;;;;;;15.80;8.37;;;;;;;1.97;58.60;100118.55;115367;1198;103057;-79
2021/03/23 04:40:15;;;;;;;13.67;8.00;;;;;;;1.96;58.83;100125.41;115417;1199;104308;-78
2021/03/23 04:42:43;;;;;;;16.10;8.60;;;;;;;1.96;58.83;100127.13;115409;1198;103159;-78
2021/03/23 04:45:10;;;;;;;16.90;8.03;;;;;;;1.97;59.20;100128.84;115361;1199;103003;-79
2021/03/23 04:47:38;;;;;;;18.37;8.97;;;;;;;1.97;59.09;100126.27;115365;1199;103041;-79
2021/03/23 04:50:09;;;;;;;16.80;8.57;;;;;;;1.95;59.11;100125.41;115356;1199;103114;-79
2021/03/23 04:52:36;;;;;;;17.43;8.20;;;;;;;1.93;59.02;100127.13;115379;1200;103095;-78
2021/03/23 04:55:05;;;;;;;15.90;8.17;;;;;;;1.92;59.17;100123.70;115350;1199;103154;-78
2021/03/23 04:57:32;;;;;;;15.10;7.97;;;;;;;1.93;59.36;100132.27;115290;1199;103136;-77
2021/03/23 04:59:59;;;;;;;18.00;8.63;;;;;;;1.94;59.07;100142.56;115330;1199;103002;-77
2021/03/23 05:02:26;;;;;;;17.23;8.57;;;;;;;1.95;59.40;100130.55;115372;1199;103114;-78
2021/03/23 05:04:53;;;;;;;17.07;8.20;;;;;;;1.98;59.40;100148.59;115364;1199;103038;-78
2021/03/23 05:07:24;;;;;;;19.53;8.50;;;;;;;1.99;59.24;100147.73;115361;1199;102992;-79
2021/03/23 05:09:51;;;;;;;16.27;8.07;;;;;;;1.99;59.06;100152.88;115316;1199;103041;-78
2021/03/23 05:12:19;;;;;;;16.67;8.37;;;;;;;1.98;59.38;100146.02;115263;1199;103017;-79
2021/03/23 05:14:47;;;;;;;17.13;8.30;;;;;;;1.98;58.92;100146.02;115433;1199;103072;-78
2021/03/23 05:17:16;;;;;;;16.63;8.07;;;;;;;2.02;59.10;100147.73;115642;1198;103082;-78
2021/03/23 05:19:43;;;;;;;16.85;8.05;;;;;;;2.04;59.15;100151.16;115330;1200;103445;-78
2021/03/23 05:22:11;;;;;;;17.20;8.57;;;;;;;2.07;59.20;100144.30;115300;1198;103053;-77
2021/03/23 05:28:58;;;;;;;16.33;8.43;;;;;;;2.15;59.37;100148.57;115555;1199;103127;-78
2021/03/23 05:31:25;;;;;;;17.27;8.67;;;;;;;2.18;59.37;100153.75;115359;1199;103545;-78
2021/03/23 05:33:54;;;;;;;16.27;7.70;;;;;;;2.22;59.31;100153.73;115372;1197;103688;-79
2021/03/23 05:36:23;;;;;;;17.23;8.77;;;;;;;2.24;59.16;100149.45;115395;1199;103025;-78
2021/03/23 05:38:50;;;;;;;15.90;8.45;;;;;;;2.25;58.85;100156.30;115577;1198;103082;-78
2021/03/23 05:41:46;;;;;;;16.50;8.07;;;;;;;2.27;59.03;100161.45;115371;1199;103085;-79
2021/03/23 05:44:16;;;;;;;19.60;8.70;;;;;;;2.29;59.29;100163.16;115376;1199;103466;-78
2021/03/23 05:46:43;;;;;;;19.40;9.93;;;;;;;2.33;58.98;100164.88;115407;1199;103245;-78
2021/03/23 05:49:10;;;;;;;15.20;8.47;;;;;;;2.35;58.96;100163.19;115335;1198;103118;-78
2021/03/23 05:51:40;;;;;;;15.70;7.85;;;;;;;2.37;59.16;100166.61;115545;1198;103009;-79
2021/03/23 05:54:28;;;;;;;18.73;8.60;;;;;;;2.43;58.99;100174.32;115649;1199;102992;-79
2021/03/23 05:56:58;;;;;;;15.20;7.80;;;;;;;2.50;58.59;100171.73;115493;1199;103031;-78
2021/03/23 05:59:47;;;;;;;14.77;7.70;;;;;;;2.56;58.78;100176.89;115368;1200;103108;-79
2021/03/23 06:02:30;;;;;;;17.47;7.83;;;;;;;2.63;58.81;100171.73;115597;1197;103017;-79
2021/03/23 06:05:03;;;;;;;14.70;7.77;;;;;;;2.69;58.73;100173.42;115422;1199;103092;-79
2021/03/23 06:07:36;;;;;;;13.27;6.87;;;;;;;2.73;58.50;100176.02;115351;1200;102935;-78
2021/03/23 06:10:17;;;;;;;15.97;7.27;;;;;;;2.79;58.48;100169.98;115344;1200;103120;-78
2021/03/23 06:13:16;;;;;;;13.37;6.47;;;;;;;2.79;58.36;100169.98;115426;1199;103182;-78
2021/03/23 06:16:02;;;;;;;13.80;7.10;;;;;;;2.81;58.35;100186.30;115309;1200;103028;-78
2021/03/23 06:18:43;;;;;;;13.10;6.73;;;;;;;2.83;58.44;100186.29;115498;1199;103045;-77
2021/03/23 06:21:20;;;;;;;12.63;6.53;;;;;;;2.85;58.46;100188.00;115361;1199;103140;-78
2021/03/23 06:24:02;;;;;;;11.13;6.33;;;;;;;2.91;58.31;100194.88;115548;1200;103194;-78
2021/03/23 06:26:35;;;;;;;11.77;5.90;;;;;;;2.98;58.42;100201.72;115580;1199;103018;-78
2021/03/23 06:29:17;;;;;;;14.80;7.07;;;;;;;3.03;58.71;100190.53;115466;1199;102999;-78
2021/03/23 06:32:25;;;;;;;15.07;7.63;;;;;;;3.05;58.40;100193.10;115633;1198;104344;-78
2021/03/23 06:34:57;;;;;;;13.33;6.58;;;;;;;3.14;58.67;100190.52;115511;1199;103031;-79
2021/03/23 06:37:26;;;;;;;12.60;6.70;;;;;;;3.22;58.66;100182.75;115353;1198;103092;-78
2021/03/23 06:39:55;;;;;;;14.13;6.80;;;;;;;3.30;58.57;100191.33;115449;1198;103124;-79
2021/03/23 06:42:51;;;;;;;13.65;6.60;;;;;;;3.41;58.49;100192.16;115385;1200;103163;-78
2021/03/23 06:45:30;;;;;;;16.37;6.97;;;;;;;3.59;58.35;100191.19;115384;1199;103076;-79
2021/03/23 06:48:22;;;;;;;13.43;6.80;;;;;;;3.78;58.45;100191.98;115378;1199;103419;-78
2021/03/23 06:51:05;;;;;;;14.60;7.27;;;;;;;4.01;57.89;100192.70;115381;1200;102037;-79
2021/03/23 06:53:32;;;;;;;15.37;6.90;;;;;;;4.14;57.85;100191.76;115457;1199;103199;-79
2021/03/23 06:56:24;;;;;;;14.47;7.47;;;;;;;4.23;57.45;100195.98;115335;1198;103128;-79
2021/03/23 06:59:19;;;;;;;12.83;6.97;;;;;;;4.34;57.26;100183.01;115393;1198;103064;-78
2021/03/23 07:01:52;;;;;;;16.07;7.13;;;;;;;4.50;57.29;100184.60;115502;1199;103031;-78
2021/03/23 07:04:25;;;;;;;12.57;6.77;;;;;;;4.72;56.93;100195.59;115491;1199;103015;-78
2021/03/23 07:07:14;;;;;;;14.07;6.63;;;;;;;4.99;56.70;100194.45;115400;1197;103190;-78
2021/03/23 07:09:59;;;;;;;13.83;7.60;;;;;;;5.29;56.06;100190.69;115658;1200;103139;-79
2021/03/23 07:12:38;;;;;;;15.43;6.50;;;;;;;5.55;55.67;100192.95;115388;1198;103002;-78
2021/03/23 07:15:16;;;;;;;12.13;6.83;;;;;;;5.84;55.74;100193.44;115694;1199;102977;-78
2021/03/23 07:17:47;;;;;;;13.97;7.93;;;;;;;6.19;55.44;100189.52;115389;1199;103130;-78
2021/03/23 07:20:33;;;;;;;13.07;7.17;;;;;;;6.85;54.40;100184.97;115638;1199;104094;-79
2021/03/23 07:23:02;;;;;;;11.50;6.70;;;;;;;7.60;53.59;100193.03;115645;1200;103069;-79
2021/03/23 07:25:41;;;;;;;14.10;7.50;;;;;;;8.11;52.87;100193.64;115404;1198;103006;-79
2021/03/23 07:28:37;;;;;;;13.77;7.07;;;;;;;8.48;52.15;100194.51;115421;1198;103114;-78
2021/03/23 07:31:24;;;;;;;12.37;7.00;;;;;;;8.95;51.16;100195.03;115381;1199;103086;-79
2021/03/23 07:34:15;;;;;;;12.27;6.47;;;;;;;9.32;50.56;100196.64;115393;1199;103046;-79
2021/03/23 07:37:22;;;;;;;13.33;6.90;;;;;;;9.84;50.22;100187.33;115563;1200;103110;-79
2021/03/23 07:39:55;;;;;;;11.90;6.47;;;;;;;10.73;48.35;100188.84;115583;1198;103057;-78
2021/03/23 07:42:41;;;;;;;10.45;6.45;;;;;;;11.25;47.16;100186.19;115350;1198;102983;-79
2021/03/23 07:45:21;;;;;;;13.03;7.07;;;;;;;11.34;45.96;100185.88;115386;1198;103052;-78
2021/03/23 07:48:13;;;;;;;10.85;6.25;;;;;;;11.81;45.97;100186.73;115436;1199;103474;-78
2021/03/23 07:50:45;;;;;;;11.97;6.23;;;;;;;11.96;45.66;100183.54;115374;1198;103100;-78
2021/03/23 07:53:24;;;;;;;12.83;7.50;;;;;;;11.96;45.42;100185.30;115381;1198;102983;-78
2021/03/23 07:55:52;;;;;;;11.40;6.57;;;;;;;12.14;44.06;100179.36;115531;1199;102977;-79
2021/03/23 07:58:31;;;;;;;11.27;6.93;;;;;;;11.91;44.17;100176.80;115296;1200;103006;-78
2021/03/23 08:01:23;;;;;;;12.60;7.00;;;;;;;11.75;44.58;100171.27;115486;1199;102084;-78
2021/03/23 08:04:06;;;;;;;8.10;5.83;;;;;;;11.64;44.62;100183.88;115324;1199;102825;-78
2021/03/23 08:06:53;;;;;;;12.45;6.70;;;;;;;11.97;44.26;100172.17;115551;1198;103095;-78
2021/03/23 08:09:32;;;;;;;10.83;6.47;;;;;;;13.13;44.03;100180.46;115387;1198;103101;-78
2021/03/23 08:12:36;;;;;;;10.57;6.93;;;;;;;14.12;42.68;100181.17;115568;1199;103091;-78
2021/03/23 08:15:31;;;;;;;13.57;6.87;;;;;;;14.91;41.66;100179.06;115439;1200;102976;-79
2021/03/23 08:18:20;;;;;;;14.00;6.70;;;;;;;15.87;40.54;100179.23;115477;1199;103075;-79
2021/03/23 08:20:48;;;;;;;12.63;7.20;;;;;;;16.88;39.55;100184.03;115540;1199;103117;-78
2021/03/23 08:23:24;;;;;;;9.77;6.27;;;;;;;17.52;38.87;100188.88;115597;1198;103121;-78
2021/03/23 08:26:02;;;;;;;11.23;6.78;;;;;;;18.17;37.33;100182.22;115577;1200;103028;-77
2021/03/23 08:28:49;;;;;;;9.17;5.87;;;;;;;19.19;35.92;100181.52;115528;1199;103015;-78
2021/03/23 08:31:34;;;;;;;10.77;6.50;;;;;;;19.89;35.06;100179.23;115489;1199;103095;-79
2021/03/23 08:34:12;;;;;;;12.03;6.90;;;;;;;20.51;35.52;100181.80;115345;1200;102976;-79
2021/03/23 08:37:16;;;;;;;10.93;6.10;;;;;;;21.13;33.92;100184.13;115452;1199;103089;-79
2021/03/23 08:39:57;;;;;;;10.33;6.00;;;;;;;21.17;33.61;100182.08;115337;1200;103082;-79
2021/03/23 08:42:26;;;;;;;9.47;5.80;;;;;;;20.97;32.47;100180.96;115302;1198;102979;-78
2021/03/23 08:45:17;;;;;;;8.73;5.93;;;;;;;20.73;32.47;100178.38;115659;1199;103111;-79
2021/03/23 08:47:51;;;;;;;9.03;6.17;;;;;;;20.96;32.39;100181.08;115409;1198;103117;-79
2021/03/23 08:50:40;;;;;;;9.63;6.40;;;;;;;21.04;31.52;100179.55;115636;1199;103076;-79
2021/03/23 08:53:32;;;;;;;10.40;6.00;;;;;;;21.33;31.88;100190.58;115321;1199;103060;-79
2021/03/23 08:56:02;;;;;;;10.37;6.27;;;;;;;21.32;31.96;100177.44;115431;1199;103035;-79
2021/03/23 08:58:41;;;;;;;9.57;5.90;;;;;;;21.05;30.93;100181.23;115354;1199;102971;-79
2021/03/23 09:01:40;;;;;;;9.00;6.00;;;;;;;20.58;30.88;100179.52;115549;1199;103035;-79
2021/03/23 09:04:11;;;;;;;8.97;6.00;;;;;;;20.59;31.64;100183.86;115467;1199;103149;-79
2021/03/23 09:07:04;;;;;;;11.80;6.00;;;;;;;21.14;30.57;100190.28;115483;1198;102992;-79
2021/03/23 09:09:31;;;;;;;8.93;5.70;;;;;;;21.62;31.03;100192.77;115506;1199;103523;-79
2021/03/23 09:12:42;;;;;;;9.77;5.87;;;;;;;22.14;30.48;100189.48;115617;1199;103068;-79
2021/03/23 09:15:19;;;;;;;10.40;6.03;;;;;;;22.75;29.56;100187.06;115325;1200;102284;-80
2021/03/23 09:18:02;;;;;;;9.63;6.00;;;;;;;23.11;29.80;100182.30;115346;1202;103162;-80
2021/03/23 09:20:33;;;;;;;8.87;5.73;;;;;;;23.69;28.92;100175.46;115339;1203;103210;-78
2021/03/23 09:23:21;;;;;;;7.97;5.00;;;;;;;23.95;28.52;100182.98;115108;1202;103044;-79
2021/03/23 09:26:01;;;;;;;7.47;5.03;;;;;;;24.10;27.67;100178.96;115175;1203;103101;-79
2021/03/23 09:28:29;;;;;;;10.93;6.27;;;;;;;24.14;27.63;100188.36;115029;1202;103255;-79
2021/03/23 09:31:02;;;;;;;8.67;5.67;;;;;;;24.42;27.90;100181.42;115170;1202;102878;-79
2021/03/23 09:33:40;;;;;;;7.75;5.40;;;;;;;24.58;27.60;100188.84;115059;1202;103153;-79
2021/03/23 09:36:10;;;;;;;10.00;6.23;;;;;;;24.86;26.94;100190.66;115072;1202;103130;-79
2021/03/23 09:38:41;;;;;;;8.85;5.70;;;;;;;25.04;26.10;100190.80;115163;1203;103195;-79
2021/03/23 09:41:21;;;;;;;8.07;5.97;;;;;;;24.71;26.23;100192.91;115094;1202;103172;-79
2021/03/23 09:43:54;;;;;;;8.87;6.20;;;;;;;24.18;26.35;100189.76;115213;1203;103210;-79
2021/03/23 09:46:48;;;;;;;10.95;5.85;;;;;;;23.36;25.93;100195.20;115060;1202;103217;-79
2021/03/23 09:49:34;;;;;;;15.27;8.53;;;;;;;22.64;26.34;100208.41;115358;1201;102906;-81
2021/03/23 09:52:06;;;;;;;10.88;7.95;;;;;;;22.25;26.85;100220.47;115445;1200;103148;-81
2021/03/23 09:54:40;;;;;;;9.83;5.83;;;;;;;21.97;27.15;100211.20;115678;1198;102851;-80
2021/03/23 09:57:16;;;;;;;10.30;6.17;;;;;;;21.67;27.58;100222.44;115597;1199;102974;-81
2021/03/23 10:00:13;;;;;;;13.30;6.57;;;;;;;21.36;27.55;100219.55;115538;1197;103050;-80
2021/03/23 10:02:40;;;;;;;8.27;5.40;;;;;;;20.85;26.95;100224.33;115634;1199;103142;-81
2021/03/23 10:05:30;;;;;;;9.65;6.35;;;;;;;20.29;27.85;100228.45;115559;1198;102985;-81
2021/03/23 10:08:34;;;;;;;10.17;6.03;;;;;;;19.53;28.55;100232.08;115537;1199;103076;-81
2021/03/23 10:11:17;;;;;;;11.50;6.27;;;;;;;18.77;29.47;100227.56;115185;1202;103043;-79
2021/03/23 10:13:48;;;;;;;8.60;6.05;;;;;;;18.22;29.99;100235.56;115176;1201;103105;-80
2021/03/23 10:16:29;;;;;;;13.97;8.33;;;;;;;17.59;30.32;100238.59;115259;1202;103032;-80
2021/03/23 10:19:00;;;;;;;10.35;6.80;;;;;;;17.00;31.00;100237.77;115279;1202;101663;-80
2021/03/23 10:21:31;;;;;;;9.93;6.37;;;;;;;16.59;31.67;100238.34;115225;1202;103638;-80
2021/03/23 10:24:05;;;;;;;10.70;6.33;;;;;;;16.13;32.33;100233.02;115362;1203;102912;-80
2021/03/23 10:26:45;;;;;;;11.33;6.60;;;;;;;15.64;32.83;100245.36;115436;1201;103005;-81
2021/03/23 10:29:15;;;;;;;12.00;7.25;;;;;;;15.29;33.49;100249.80;115369;1202;103005;-81
2021/03/23 10:31:52;;;;;;;10.20;6.17;;;;;;;14.92;33.92;100243.78;115375;1201;103392;-81
2021/03/23 10:34:25;;;;;;;11.50;7.33;;;;;;;14.58;34.29;100238.50;115357;1202;103022;-80
2021/03/23 10:37:08;;;;;;;10.93;6.20;;;;;;;14.44;34.95;100249.66;115357;1202;103049;-79
2021/03/23 10:39:41;;;;;;;10.57;6.83;;;;;;;14.47;35.18;100242.48;115487;1203;103088;-80
2021/03/23 10:42:19;;;;;;;15.50;7.85;;;;;;;14.44;35.46;100247.03;115423;1203;103091;-80
2021/03/23 10:44:47;;;;;;;12.50;7.50;;;;;;;14.40;35.61;100237.58;115285;1201;103133;-80
2021/03/23 10:47:28;;;;;;;11.70;7.10;;;;;;;14.27;35.90;100239.08;115539;1199;103163;-80
2021/03/23 10:50:21;;;;;;;11.97;7.60;;;;;;;14.18;36.38;100246.47;115493;1199;102959;-80
2021/03/23 10:52:50;;;;;;;11.43;6.60;;;;;;;14.16;36.46;100239.57;115657;1198;103059;-80
2021/03/23 10:55:32;;;;;;;11.43;7.07;;;;;;;14.05;36.42;100253.20;115531;1199;103105;-79
2021/03/23 10:58:32;;;;;;;12.00;7.23;;;;;;;13.95;36.46;100254.53;115475;1199;102985;-80
2021/03/23 11:01:21;;;;;;;11.83;7.03;;;;;;;13.81;36.43;100254.30;115249;1202;103172;-81
2021/03/23 11:03:52;;;;;;;12.10;7.00;;;;;;;13.56;36.63;100254.56;115170;1202;103070;-80
2021/03/23 11:06:35;;;;;;;14.87;8.30;;;;;;;13.33;37.09;100257.34;115201;1202;103027;-80
2021/03/23 11:09:07;;;;;;;11.30;7.10;;;;;;;13.18;37.54;100259.70;115182;1202;103104;-80
2021/03/23 11:11:36;;;;;;;13.55;7.45;;;;;;;13.14;37.85;100268.58;115092;1201;103484;-79
2021/03/23 11:14:03;;;;;;;12.20;6.87;;;;;;;13.13;37.82;100269.49;115203;1202;103200;-79
2021/03/23 11:16:33;;;;;;;14.20;7.80;;;;;;;13.08;37.91;100265.34;115257;1201;103155;-79
2021/03/23 11:19:07;;;;;;;12.50;7.33;;;;;;;13.04;37.90;100259.39;115357;1202;103082;-80
2021/03/23 11:21:37;;;;;;;11.70;7.03;;;;;;;12.89;38.12;100262.64;115325;1202;103044;-80
2021/03/23 11:24:06;;;;;;;10.35;6.55;;;;;;;12.82;38.35;100269.05;115310;1202;102919;-81
2021/03/23 11:26:34;;;;;;;10.90;6.90;;;;;;;12.77;38.67;100271.02;115368;1201;102999;-79
2021/03/23 11:29:04;;;;;;;11.83;6.83;;;;;;;12.73;38.70;100262.41;115275;1202;103159;-79
2021/03/23 11:31:35;;;;;;;11.80;6.70;;;;;;;12.64;38.78;100266.27;115251;1203;103014;-79
2021/03/23 11:34:04;;;;;;;9.75;6.50;;;;;;;12.54;39.06;100271.92;115149;1202;102146;-80
2021/03/23 11:36:33;;;;;;;12.50;7.50;;;;;;;12.37;39.30;100275.20;115220;1200;103216;-79
2021/03/23 11:39:04;;;;;;;12.33;7.77;;;;;;;12.19;39.82;100281.98;115453;1199;103014;-79
2021/03/23 11:41:38;;;;;;;13.17;7.10;;;;;;;12.04;40.12;100274.75;115406;1198;102983;-79